Aviation Digital Data Service (ADDS)

Output produced by METARs form (0439 UTC 07 July 2015)
found at http://aviationweather.gov/adds/metars/
 
KGFL 062336Z 0700/0724 18003KT P6SM FEW090 SCT200 
     FM070700 VRB02KT 5SM BR SCT015 BKN035 
     FM071400 19007KT P6SM VCSH OVC025 
     FM071800 19008KT P6SM -SHRA BKN035